FAUT

K. D. Matanzima Airport

Airport
ICAO code
FAUT
IATA Code
UTT
Summary
ICAO Region
AFI
ICAO Territory
Location

, Eastern Cape

Serving
Umtata
Elevation
2400 ft
Coordinates
31° 32' 52" S , 28° 40' 27" E
Metar
FAUT 240600Z 31009KT 9999 OVC040 28/13 Q1011

Runways

Designator Length Width Surface Rops
9/27 1500 30 GRE No/No
14/32 2000 23 ASP No/No

Airport map

Aerial View

SKYbrary Partners:

Safety knowledge contributed by: